sensor_id;sensor_type;location;lat;lon;timestamp;pressure;altitude;pressure_sealevel;temperature
67758;BMP180;54562;47.620;18.786;2023-03-23T00:02:01;98328.60;;;10.20
67758;BMP180;54562;47.620;18.786;2023-03-23T00:05:10;98322.80;;;10.24
67758;BMP180;54562;47.620;18.786;2023-03-23T00:08:17;98327.20;;;10.30
67758;BMP180;54562;47.620;18.786;2023-03-23T00:11:28;98324.00;;;10.30
67758;BMP180;54562;47.620;18.786;2023-03-23T00:14:43;98315.00;;;10.30
67758;BMP180;54562;47.620;18.786;2023-03-23T00:17:50;98318.60;;;10.30
67758;BMP180;54562;47.620;18.786;2023-03-23T00:21:06;98315.60;;;10.40
67758;BMP180;54562;47.620;18.786;2023-03-23T00:24:16;98317.60;;;10.40
67758;BMP180;54562;47.620;18.786;2023-03-23T00:27:40;98316.60;;;10.40
67758;BMP180;54562;47.620;18.786;2023-03-23T00:30:47;98319.60;;;10.46
67758;BMP180;54562;47.620;18.786;2023-03-23T00:33:53;98316.40;;;10.48
67758;BMP180;54562;47.620;18.786;2023-03-23T00:37:01;98323.80;;;10.50
67758;BMP180;54562;47.620;18.786;2023-03-23T00:40:16;98315.60;;;10.42
67758;BMP180;54562;47.620;18.786;2023-03-23T00:43:23;98312.40;;;10.40
67758;BMP180;54562;47.620;18.786;2023-03-23T00:46:35;98311.40;;;10.38
67758;BMP180;54562;47.620;18.786;2023-03-23T00:49:50;98309.00;;;10.30
67758;BMP180;54562;47.620;18.786;2023-03-23T00:52:58;98301.80;;;10.30
67758;BMP180;54562;47.620;18.786;2023-03-23T00:56:05;98304.40;;;10.32
67758;BMP180;54562;47.620;18.786;2023-03-23T00:59:13;98300.80;;;10.30
67758;BMP180;54562;47.620;18.786;2023-03-23T01:02:20;98290.60;;;10.30
67758;BMP180;54562;47.620;18.786;2023-03-23T01:05:39;98287.80;;;10.30
67758;BMP180;54562;47.620;18.786;2023-03-23T01:08:45;98292.80;;;10.30
67758;BMP180;54562;47.620;18.786;2023-03-23T01:11:54;98292.00;;;10.38
67758;BMP180;54562;47.620;18.786;2023-03-23T01:15:02;98288.20;;;10.32
67758;BMP180;54562;47.620;18.786;2023-03-23T01:18:10;98290.60;;;10.30
67758;BMP180;54562;47.620;18.786;2023-03-23T01:21:19;98286.20;;;10.30
67758;BMP180;54562;47.620;18.786;2023-03-23T01:24:28;98288.40;;;10.30
67758;BMP180;54562;47.620;18.786;2023-03-23T01:27:36;98285.00;;;10.30
67758;BMP180;54562;47.620;18.786;2023-03-23T01:30:43;98283.40;;;10.30
67758;BMP180;54562;47.620;18.786;2023-03-23T01:33:51;98282.40;;;10.30
67758;BMP180;54562;47.620;18.786;2023-03-23T01:36:58;98286.40;;;10.30
67758;BMP180;54562;47.620;18.786;2023-03-23T01:40:07;98288.60;;;10.32
67758;BMP180;54562;47.620;18.786;2023-03-23T01:43:18;98283.80;;;10.30
67758;BMP180;54562;47.620;18.786;2023-03-23T01:46:27;98285.20;;;10.36
67758;BMP180;54562;47.620;18.786;2023-03-23T01:49:38;98286.80;;;10.40
67758;BMP180;54562;47.620;18.786;2023-03-23T01:52:48;98275.60;;;10.40
67758;BMP180;54562;47.620;18.786;2023-03-23T01:56:03;98275.80;;;10.30
67758;BMP180;54562;47.620;18.786;2023-03-23T01:59:12;98271.40;;;10.30
67758;BMP180;54562;47.620;18.786;2023-03-23T02:02:22;98270.00;;;10.30
67758;BMP180;54562;47.620;18.786;2023-03-23T02:05:33;98273.60;;;10.30
67758;BMP180;54562;47.620;18.786;2023-03-23T02:08:44;98264.00;;;10.20
67758;BMP180;54562;47.620;18.786;2023-03-23T02:11:53;98265.60;;;10.20
67758;BMP180;54562;47.620;18.786;2023-03-23T02:15:00;98263.40;;;10.14
67758;BMP180;54562;47.620;18.786;2023-03-23T02:18:19;98267.40;;;10.14
67758;BMP180;54562;47.620;18.786;2023-03-23T02:22:24;98270.80;;;10.10
67758;BMP180;54562;47.620;18.786;2023-03-23T02:26:03;98268.60;;;10.10
67758;BMP180;54562;47.620;18.786;2023-03-23T02:29:35;98275.40;;;10.10
67758;BMP180;54562;47.620;18.786;2023-03-23T02:33:19;98277.60;;;10.10
67758;BMP180;54562;47.620;18.786;2023-03-23T02:36:36;98279.60;;;10.10
67758;BMP180;54562;47.620;18.786;2023-03-23T02:39:48;98271.00;;;10.10
67758;BMP180;54562;47.620;18.786;2023-03-23T02:43:00;98272.20;;;10.10
67758;BMP180;54562;47.620;18.786;2023-03-23T02:46:11;98281.60;;;10.10
67758;BMP180;54562;47.620;18.786;2023-03-23T02:49:30;98277.80;;;10.10
67758;BMP180;54562;47.620;18.786;2023-03-23T02:52:41;98275.40;;;10.10
67758;BMP180;54562;47.620;18.786;2023-03-23T02:55:51;98279.40;;;10.10
67758;BMP180;54562;47.620;18.786;2023-03-23T02:59:01;98274.80;;;10.10
67758;BMP180;54562;47.620;18.786;2023-03-23T03:02:28;98281.00;;;10.10
67758;BMP180;54562;47.620;18.786;2023-03-23T03:05:47;98278.40;;;10.10
67758;BMP180;54562;47.620;18.786;2023-03-23T03:09:01;98282.80;;;10.10
67758;BMP180;54562;47.620;18.786;2023-03-23T03:12:17;98285.00;;;10.00
67758;BMP180;54562;47.620;18.786;2023-03-23T03:15:33;98288.60;;;9.90
67758;BMP180;54562;47.620;18.786;2023-03-23T03:18:49;98288.40;;;9.80
67758;BMP180;54562;47.620;18.786;2023-03-23T03:22:15;98289.00;;;9.60
67758;BMP180;54562;47.620;18.786;2023-03-23T03:25:23;98289.80;;;9.50
67758;BMP180;54562;47.620;18.786;2023-03-23T03:28:49;98290.80;;;9.40
67758;BMP180;54562;47.620;18.786;2023-03-23T03:32:01;98297.20;;;9.30
67758;BMP180;54562;47.620;18.786;2023-03-23T03:35:11;98296.00;;;9.20
67758;BMP180;54562;47.620;18.786;2023-03-23T03:38:18;98297.60;;;9.10
67758;BMP180;54562;47.620;18.786;2023-03-23T03:41:33;98299.80;;;9.00
67758;BMP180;54562;47.620;18.786;2023-03-23T03:44:40;98299.40;;;9.00
67758;BMP180;54562;47.620;18.786;2023-03-23T03:47:46;98300.00;;;9.00
67758;BMP180;54562;47.620;18.786;2023-03-23T03:50:53;98299.80;;;9.00
67758;BMP180;54562;47.620;18.786;2023-03-23T03:54:10;98298.40;;;9.00
67758;BMP180;54562;47.620;18.786;2023-03-23T03:57:16;98301.00;;;9.10
67758;BMP180;54562;47.620;18.786;2023-03-23T04:00:39;98300.40;;;9.12
67758;BMP180;54562;47.620;18.786;2023-03-23T04:03:47;98302.40;;;9.10
67758;BMP180;54562;47.620;18.786;2023-03-23T04:07:11;98310.00;;;9.10
67758;BMP180;54562;47.620;18.786;2023-03-23T04:10:20;98313.60;;;9.00
67758;BMP180;54562;47.620;18.786;2023-03-23T04:13:36;98315.40;;;8.92
67758;BMP180;54562;47.620;18.786;2023-03-23T04:16:44;98315.00;;;8.84
67758;BMP180;54562;47.620;18.786;2023-03-23T04:19:59;98313.60;;;8.78
67758;BMP180;54562;47.620;18.786;2023-03-23T04:23:08;98306.60;;;8.68
67758;BMP180;54562;47.620;18.786;2023-03-23T04:26:15;98310.80;;;8.60
67758;BMP180;54562;47.620;18.786;2023-03-23T04:29:22;98307.60;;;8.50
67758;BMP180;54562;47.620;18.786;2023-03-23T04:32:37;98301.60;;;8.40
67758;BMP180;54562;47.620;18.786;2023-03-23T04:35:45;98300.80;;;8.34
67758;BMP180;54562;47.620;18.786;2023-03-23T04:39:01;98303.20;;;8.30
67758;BMP180;54562;47.620;18.786;2023-03-23T04:42:12;98303.80;;;8.40
67758;BMP180;54562;47.620;18.786;2023-03-23T04:45:36;98299.00;;;8.50
67758;BMP180;54562;47.620;18.786;2023-03-23T04:48:46;98299.20;;;8.60
67758;BMP180;54562;47.620;18.786;2023-03-23T04:52:10;98302.20;;;8.70
67758;BMP180;54562;47.620;18.786;2023-03-23T04:55:17;98306.80;;;8.80
67758;BMP180;54562;47.620;18.786;2023-03-23T04:58:25;98300.40;;;8.86
67758;BMP180;54562;47.620;18.786;2023-03-23T05:01:33;98297.20;;;8.90
67758;BMP180;54562;47.620;18.786;2023-03-23T05:04:43;98297.60;;;8.90
67758;BMP180;54562;47.620;18.786;2023-03-23T05:07:51;98301.80;;;8.90
67758;BMP180;54562;47.620;18.786;2023-03-23T05:11:00;98297.60;;;8.84
67758;BMP180;54562;47.620;18.786;2023-03-23T05:14:07;98299.40;;;8.80
67758;BMP180;54562;47.620;18.786;2023-03-23T05:17:15;98299.80;;;8.80
67758;BMP180;54562;47.620;18.786;2023-03-23T05:20:23;98296.20;;;8.72
67758;BMP180;54562;47.620;18.786;2023-03-23T05:23:31;98288.20;;;8.70
67758;BMP180;54562;47.620;18.786;2023-03-23T05:26:39;98290.40;;;8.60
67758;BMP180;54562;47.620;18.786;2023-03-23T05:30:03;98289.60;;;8.50
67758;BMP180;54562;47.620;18.786;2023-03-23T05:33:10;98296.20;;;8.40
67758;BMP180;54562;47.620;18.786;2023-03-23T05:36:26;98296.00;;;8.40
67758;BMP180;54562;47.620;18.786;2023-03-23T05:39:33;98301.80;;;8.40
67758;BMP180;54562;47.620;18.786;2023-03-23T05:42:48;98300.80;;;8.40
67758;BMP180;54562;47.620;18.786;2023-03-23T05:45:55;98304.40;;;8.40
67758;BMP180;54562;47.620;18.786;2023-03-23T05:49:02;98302.20;;;8.38
67758;BMP180;54562;47.620;18.786;2023-03-23T05:52:09;98305.40;;;8.30
67758;BMP180;54562;47.620;18.786;2023-03-23T05:55:24;98308.80;;;8.30
67758;BMP180;54562;47.620;18.786;2023-03-23T05:58:31;98308.80;;;8.20
67758;BMP180;54562;47.620;18.786;2023-03-23T06:01:38;98313.60;;;8.20
67758;BMP180;54562;47.620;18.786;2023-03-23T06:04:46;98317.40;;;8.20
67758;BMP180;54562;47.620;18.786;2023-03-23T06:08:02;98316.20;;;8.30
67758;BMP180;54562;47.620;18.786;2023-03-23T06:11:09;98309.00;;;8.30
67758;BMP180;54562;47.620;18.786;2023-03-23T06:14:16;98309.20;;;8.30
67758;BMP180;54562;47.620;18.786;2023-03-23T06:17:23;98306.80;;;8.30
67758;BMP180;54562;47.620;18.786;2023-03-23T06:20:39;98308.80;;;8.40
67758;BMP180;54562;47.620;18.786;2023-03-23T06:23:45;98307.00;;;8.40
67758;BMP180;54562;47.620;18.786;2023-03-23T06:27:10;98308.80;;;8.50
67758;BMP180;54562;47.620;18.786;2023-03-23T06:30:19;98312.20;;;8.60
67758;BMP180;54562;47.620;18.786;2023-03-23T06:33:37;98314.00;;;8.66
67758;BMP180;54562;47.620;18.786;2023-03-23T06:36:44;98315.80;;;8.76
67758;BMP180;54562;47.620;18.786;2023-03-23T06:40:12;98320.60;;;8.88
67758;BMP180;54562;47.620;18.786;2023-03-23T06:43:19;98321.60;;;9.00
67758;BMP180;54562;47.620;18.786;2023-03-23T06:46:33;98321.60;;;9.10
67758;BMP180;54562;47.620;18.786;2023-03-23T06:49:40;98318.00;;;9.22
67758;BMP180;54562;47.620;18.786;2023-03-23T06:53:04;98321.80;;;9.40
67758;BMP180;54562;47.620;18.786;2023-03-23T06:56:11;98322.60;;;9.56
67758;BMP180;54562;47.620;18.786;2023-03-23T06:59:35;98327.80;;;9.70
67758;BMP180;54562;47.620;18.786;2023-03-23T07:02:42;98329.40;;;9.90
67758;BMP180;54562;47.620;18.786;2023-03-23T07:05:58;98333.40;;;10.10
67758;BMP180;54562;47.620;18.786;2023-03-23T07:09:05;98334.40;;;10.30
67758;BMP180;54562;47.620;18.786;2023-03-23T07:12:36;98339.80;;;10.50
67758;BMP180;54562;47.620;18.786;2023-03-23T07:15:43;98339.60;;;10.70
67758;BMP180;54562;47.620;18.786;2023-03-23T07:19:07;98347.20;;;10.90
67758;BMP180;54562;47.620;18.786;2023-03-23T07:22:15;98345.00;;;11.10
67758;BMP180;54562;47.620;18.786;2023-03-23T07:25:47;98348.80;;;11.30
67758;BMP180;54562;47.620;18.786;2023-03-23T07:29:01;98345.60;;;11.50
67758;BMP180;54562;47.620;18.786;2023-03-23T07:32:12;98346.80;;;11.80
67758;BMP180;54562;47.620;18.786;2023-03-23T07:35:17;98363.00;;;12.00
67758;BMP180;54562;47.620;18.786;2023-03-23T07:38:32;98353.00;;;12.20
67758;BMP180;54562;47.620;18.786;2023-03-23T07:41:39;98354.00;;;12.42
67758;BMP180;54562;47.620;18.786;2023-03-23T07:44:46;98354.40;;;12.62
67758;BMP180;54562;47.620;18.786;2023-03-23T07:47:53;98352.80;;;12.80
67758;BMP180;54562;47.620;18.786;2023-03-23T07:51:17;98358.40;;;13.00
67758;BMP180;54562;47.620;18.786;2023-03-23T07:54:32;98352.80;;;13.20
67758;BMP180;54562;47.620;18.786;2023-03-23T07:57:48;98357.20;;;13.40
67758;BMP180;54562;47.620;18.786;2023-03-23T08:00:55;98359.80;;;13.58
67758;BMP180;54562;47.620;18.786;2023-03-23T08:04:11;98362.40;;;13.78
67758;BMP180;54562;47.620;18.786;2023-03-23T08:07:26;98359.40;;;13.90
67758;BMP180;54562;47.620;18.786;2023-03-23T08:10:42;98362.40;;;14.10
67758;BMP180;54562;47.620;18.786;2023-03-23T08:13:49;98362.80;;;14.20
67758;BMP180;54562;47.620;18.786;2023-03-23T08:17:04;98361.00;;;14.30
67758;BMP180;54562;47.620;18.786;2023-03-23T08:20:20;98368.80;;;14.40
67758;BMP180;54562;47.620;18.786;2023-03-23T08:23:36;98366.40;;;14.50
67758;BMP180;54562;47.620;18.786;2023-03-23T08:26:51;98370.20;;;14.60
67758;BMP180;54562;47.620;18.786;2023-03-23T08:30:09;98369.00;;;14.80
67758;BMP180;54562;47.620;18.786;2023-03-23T08:33:18;98367.20;;;14.90
67758;BMP180;54562;47.620;18.786;2023-03-23T08:36:27;98363.20;;;15.00
67758;BMP180;54562;47.620;18.786;2023-03-23T08:39:34;98366.20;;;15.10
67758;BMP180;54562;47.620;18.786;2023-03-23T08:42:42;98367.60;;;15.18
67758;BMP180;54562;47.620;18.786;2023-03-23T08:45:50;98371.60;;;15.20
67758;BMP180;54562;47.620;18.786;2023-03-23T08:48:58;98370.60;;;15.30
67758;BMP180;54562;47.620;18.786;2023-03-23T08:52:13;98371.80;;;15.50
67758;BMP180;54562;47.620;18.786;2023-03-23T08:55:22;98372.60;;;15.60
67758;BMP180;54562;47.620;18.786;2023-03-23T08:58:38;98368.00;;;15.70
67758;BMP180;54562;47.620;18.786;2023-03-23T09:01:54;98364.60;;;15.90
67758;BMP180;54562;47.620;18.786;2023-03-23T09:05:09;98361.80;;;16.00
67758;BMP180;54562;47.620;18.786;2023-03-23T09:08:17;98365.20;;;16.00
67758;BMP180;54562;47.620;18.786;2023-03-23T09:11:24;98360.80;;;16.10
67758;BMP180;54562;47.620;18.786;2023-03-23T09:14:31;98360.60;;;16.18
67758;BMP180;54562;47.620;18.786;2023-03-23T09:17:40;98360.60;;;16.20
67758;BMP180;54562;47.620;18.786;2023-03-23T09:20:56;98359.00;;;16.40
67758;BMP180;54562;47.620;18.786;2023-03-23T09:24:03;98354.80;;;16.54
67758;BMP180;54562;47.620;18.786;2023-03-23T09:27:18;98357.20;;;16.80
67758;BMP180;54562;47.620;18.786;2023-03-23T09:30:27;98366.00;;;17.00
67758;BMP180;54562;47.620;18.786;2023-03-23T09:33:35;98366.60;;;17.10
67758;BMP180;54562;47.620;18.786;2023-03-23T09:36:42;98367.40;;;17.20
67758;BMP180;54562;47.620;18.786;2023-03-23T09:39:58;98369.00;;;17.10
67758;BMP180;54562;47.620;18.786;2023-03-23T09:43:24;98364.00;;;17.10
67758;BMP180;54562;47.620;18.786;2023-03-23T09:46:55;98364.80;;;17.20
67758;BMP180;54562;47.620;18.786;2023-03-23T09:50:17;98362.80;;;17.20
67758;BMP180;54562;47.620;18.786;2023-03-23T09:53:39;98354.20;;;17.24
67758;BMP180;54562;47.620;18.786;2023-03-23T09:56:58;98358.60;;;17.30
67758;BMP180;54562;47.620;18.786;2023-03-23T10:00:12;98352.40;;;17.30
67758;BMP180;54562;47.620;18.786;2023-03-23T10:03:27;98348.20;;;17.30
67758;BMP180;54562;47.620;18.786;2023-03-23T10:06:47;98346.80;;;17.30
67758;BMP180;54562;47.620;18.786;2023-03-23T10:09:57;98342.40;;;17.30
67758;BMP180;54562;47.620;18.786;2023-03-23T10:13:23;98336.60;;;17.30
67758;BMP180;54562;47.620;18.786;2023-03-23T10:16:34;98339.20;;;17.30
67758;BMP180;54562;47.620;18.786;2023-03-23T10:20:02;98335.20;;;17.30
67758;BMP180;54562;47.620;18.786;2023-03-23T10:23:33;98336.00;;;17.36
67758;BMP180;54562;47.620;18.786;2023-03-23T10:26:51;98337.40;;;17.40
67758;BMP180;54562;47.620;18.786;2023-03-23T10:30:10;98328.60;;;17.50
67758;BMP180;54562;47.620;18.786;2023-03-23T10:33:25;98329.00;;;17.60
67758;BMP180;54562;47.620;18.786;2023-03-23T10:36:48;98331.60;;;17.60
67758;BMP180;54562;47.620;18.786;2023-03-23T10:39:59;98338.40;;;17.64
67758;BMP180;54562;47.620;18.786;2023-03-23T10:43:09;98334.60;;;17.60
67758;BMP180;54562;47.620;18.786;2023-03-23T10:46:34;98327.80;;;17.50
67758;BMP180;54562;47.620;18.786;2023-03-23T10:49:47;98333.20;;;17.50
67758;BMP180;54562;47.620;18.786;2023-03-23T10:53:11;98333.00;;;17.60
67758;BMP180;54562;47.620;18.786;2023-03-23T10:56:27;98328.00;;;17.60
67758;BMP180;54562;47.620;18.786;2023-03-23T10:59:43;98317.60;;;17.70
67758;BMP180;54562;47.620;18.786;2023-03-23T11:03:02;98316.00;;;17.90
67758;BMP180;54562;47.620;18.786;2023-03-23T11:06:24;98315.40;;;18.00
67758;BMP180;54562;47.620;18.786;2023-03-23T11:09:53;98316.60;;;18.10
67758;BMP180;54562;47.620;18.786;2023-03-23T11:13:01;98312.00;;;18.20
67758;BMP180;54562;47.620;18.786;2023-03-23T11:16:21;98305.40;;;18.14
67758;BMP180;54562;47.620;18.786;2023-03-23T11:19:38;98312.20;;;18.00
67758;BMP180;54562;47.620;18.786;2023-03-23T11:22:45;98314.40;;;17.98
67758;BMP180;54562;47.620;18.786;2023-03-23T11:26:15;98312.40;;;17.90
67758;BMP180;54562;47.620;18.786;2023-03-23T11:29:25;98316.00;;;17.84
67758;BMP180;54562;47.620;18.786;2023-03-23T11:32:35;98306.80;;;17.90
67758;BMP180;54562;47.620;18.786;2023-03-23T11:35:47;98303.40;;;18.12
67758;BMP180;54562;47.620;18.786;2023-03-23T11:39:02;98303.00;;;18.52
67758;BMP180;54562;47.620;18.786;2023-03-23T11:42:20;98304.00;;;19.02
67758;BMP180;54562;47.620;18.786;2023-03-23T11:45:36;98296.80;;;19.44
67758;BMP180;54562;47.620;18.786;2023-03-23T11:48:51;98282.00;;;19.90
67758;BMP180;54562;47.620;18.786;2023-03-23T11:52:17;98283.80;;;20.20
67758;BMP180;54562;47.620;18.786;2023-03-23T11:55:31;98276.20;;;20.40
67758;BMP180;54562;47.620;18.786;2023-03-23T11:58:39;98271.80;;;20.60
67758;BMP180;54562;47.620;18.786;2023-03-23T12:01:53;98268.40;;;20.66
67758;BMP180;54562;47.620;18.786;2023-03-23T12:05:28;98259.80;;;20.90
67758;BMP180;54562;47.620;18.786;2023-03-23T12:08:57;98257.80;;;21.10
67758;BMP180;54562;47.620;18.786;2023-03-23T12:12:18;98247.20;;;21.30
67758;BMP180;54562;47.620;18.786;2023-03-23T12:15:38;98251.00;;;21.50
67758;BMP180;54562;47.620;18.786;2023-03-23T12:19:06;98247.20;;;21.50
67758;BMP180;54562;47.620;18.786;2023-03-23T12:22:28;98252.60;;;21.60
67758;BMP180;54562;47.620;18.786;2023-03-23T12:29:44;98247.80;;;21.70
67758;BMP180;54562;47.620;18.786;2023-03-23T12:33:17;98253.00;;;21.90
67758;BMP180;54562;47.620;18.786;2023-03-23T12:36:41;98240.20;;;21.96
67758;BMP180;54562;47.620;18.786;2023-03-23T12:40:09;98234.60;;;22.20
67758;BMP180;54562;47.620;18.786;2023-03-23T12:43:29;98224.80;;;22.40
67758;BMP180;54562;47.620;18.786;2023-03-23T12:47:10;98223.40;;;22.42
67758;BMP180;54562;47.620;18.786;2023-03-23T12:50:27;98218.20;;;22.40
67758;BMP180;54562;47.620;18.786;2023-03-23T12:53:53;98225.80;;;22.40
67758;BMP180;54562;47.620;18.786;2023-03-23T12:57:08;98227.40;;;22.50
67758;BMP180;54562;47.620;18.786;2023-03-23T13:00:24;98229.40;;;22.70
67758;BMP180;54562;47.620;18.786;2023-03-23T13:03:41;98225.80;;;22.70
67758;BMP180;54562;47.620;18.786;2023-03-23T13:06:59;98229.00;;;22.80
67758;BMP180;54562;47.620;18.786;2023-03-23T13:10:19;98221.60;;;22.80
67758;BMP180;54562;47.620;18.786;2023-03-23T13:13:47;98224.40;;;22.70
67758;BMP180;54562;47.620;18.786;2023-03-23T13:17:07;98226.60;;;22.70
67758;BMP180;54562;47.620;18.786;2023-03-23T13:20:48;98215.20;;;22.70
67758;BMP180;54562;47.620;18.786;2023-03-23T13:24:03;98217.40;;;22.86
67758;BMP180;54562;47.620;18.786;2023-03-23T13:27:12;98204.80;;;22.90
67758;BMP180;54562;47.620;18.786;2023-03-23T13:30:24;98198.00;;;22.90
67758;BMP180;54562;47.620;18.786;2023-03-23T13:33:37;98201.60;;;22.96
67758;BMP180;54562;47.620;18.786;2023-03-23T13:36:53;98192.00;;;22.86
67758;BMP180;54562;47.620;18.786;2023-03-23T13:40:28;98198.60;;;22.80
67758;BMP180;54562;47.620;18.786;2023-03-23T13:43:37;98194.20;;;22.80
67758;BMP180;54562;47.620;18.786;2023-03-23T13:46:55;98193.40;;;22.72
67758;BMP180;54562;47.620;18.786;2023-03-23T13:50:12;98190.60;;;22.70
67758;BMP180;54562;47.620;18.786;2023-03-23T13:53:28;98191.60;;;22.60
67758;BMP180;54562;47.620;18.786;2023-03-23T13:56:47;98187.00;;;22.50
67758;BMP180;54562;47.620;18.786;2023-03-23T14:00:36;98185.40;;;22.30
67758;BMP180;54562;47.620;18.786;2023-03-23T14:03:47;98182.40;;;22.20
67758;BMP180;54562;47.620;18.786;2023-03-23T14:06:56;98174.80;;;22.10
67758;BMP180;54562;47.620;18.786;2023-03-23T14:10:14;98178.60;;;22.02
67758;BMP180;54562;47.620;18.786;2023-03-23T14:13:30;98177.20;;;22.00
67758;BMP180;54562;47.620;18.786;2023-03-23T14:16:44;98176.40;;;22.00
67758;BMP180;54562;47.620;18.786;2023-03-23T14:20:09;98174.20;;;22.00
67758;BMP180;54562;47.620;18.786;2023-03-23T14:23:25;98175.60;;;22.00
67758;BMP180;54562;47.620;18.786;2023-03-23T14:26:41;98179.00;;;22.00
67758;BMP180;54562;47.620;18.786;2023-03-23T14:30:01;98174.40;;;22.00
67758;BMP180;54562;47.620;18.786;2023-03-23T14:33:17;98171.20;;;22.00
67758;BMP180;54562;47.620;18.786;2023-03-23T14:36:28;98175.60;;;22.00
67758;BMP180;54562;47.620;18.786;2023-03-23T14:39:54;98172.00;;;22.00
67758;BMP180;54562;47.620;18.786;2023-03-23T14:43:03;98177.60;;;21.80
67758;BMP180;54562;47.620;18.786;2023-03-23T14:46:13;98180.40;;;21.64
67758;BMP180;54562;47.620;18.786;2023-03-23T14:49:30;98182.20;;;21.60
67758;BMP180;54562;47.620;18.786;2023-03-23T14:52:50;98181.00;;;21.50
67758;BMP180;54562;47.620;18.786;2023-03-23T14:56:02;98188.60;;;21.40
67758;BMP180;54562;47.620;18.786;2023-03-23T14:59:18;98181.20;;;21.30
67758;BMP180;54562;47.620;18.786;2023-03-23T15:02:30;98184.80;;;21.10
67758;BMP180;54562;47.620;18.786;2023-03-23T15:05:50;98183.20;;;20.90
67758;BMP180;54562;47.620;18.786;2023-03-23T15:09:01;98178.60;;;20.76
67758;BMP180;54562;47.620;18.786;2023-03-23T15:12:21;98175.00;;;20.60
67758;BMP180;54562;47.620;18.786;2023-03-23T15:15:29;98176.80;;;20.50
67758;BMP180;54562;47.620;18.786;2023-03-23T15:18:53;98174.80;;;20.20
67758;BMP180;54562;47.620;18.786;2023-03-23T15:22:24;98170.00;;;20.18
67758;BMP180;54562;47.620;18.786;2023-03-23T15:25:40;98164.20;;;20.18
67758;BMP180;54562;47.620;18.786;2023-03-23T15:29:08;98161.00;;;20.10
67758;BMP180;54562;47.620;18.786;2023-03-23T15:32:24;98166.40;;;20.10
67758;BMP180;54562;47.620;18.786;2023-03-23T15:35:38;98162.80;;;19.90
67758;BMP180;54562;47.620;18.786;2023-03-23T15:38:54;98166.80;;;19.80
67758;BMP180;54562;47.620;18.786;2023-03-23T15:42:07;98167.40;;;19.70
67758;BMP180;54562;47.620;18.786;2023-03-23T15:45:29;98166.20;;;19.60
67758;BMP180;54562;47.620;18.786;2023-03-23T15:48:47;98168.20;;;19.40
67758;BMP180;54562;47.620;18.786;2023-03-23T15:52:02;98167.20;;;19.30
67758;BMP180;54562;47.620;18.786;2023-03-23T15:55:26;98160.40;;;19.10
67758;BMP180;54562;47.620;18.786;2023-03-23T15:58:35;98162.20;;;19.00
67758;BMP180;54562;47.620;18.786;2023-03-23T16:01:44;98164.60;;;18.88
67758;BMP180;54562;47.620;18.786;2023-03-23T16:05:12;98169.00;;;18.74
67758;BMP180;54562;47.620;18.786;2023-03-23T16:08:20;98171.20;;;18.60
67758;BMP180;54562;47.620;18.786;2023-03-23T16:11:37;98174.80;;;18.52
67758;BMP180;54562;47.620;18.786;2023-03-23T16:14:46;98180.40;;;18.44
67758;BMP180;54562;47.620;18.786;2023-03-23T16:18:02;98183.00;;;18.40
67758;BMP180;54562;47.620;18.786;2023-03-23T16:21:11;98186.80;;;18.30
67758;BMP180;54562;47.620;18.786;2023-03-23T16:24:19;98185.00;;;18.24
67758;BMP180;54562;47.620;18.786;2023-03-23T16:27:27;98181.40;;;18.20
67758;BMP180;54562;47.620;18.786;2023-03-23T16:30:45;98180.20;;;18.10
67758;BMP180;54562;47.620;18.786;2023-03-23T16:33:53;98186.80;;;18.00
67758;BMP180;54562;47.620;18.786;2023-03-23T16:37:02;98189.80;;;18.00
67758;BMP180;54562;47.620;18.786;2023-03-23T16:40:15;98189.80;;;17.90
67758;BMP180;54562;47.620;18.786;2023-03-23T16:43:40;98194.40;;;17.80
67758;BMP180;54562;47.620;18.786;2023-03-23T16:46:48;98193.40;;;17.60
67758;BMP180;54562;47.620;18.786;2023-03-23T16:50:07;98189.00;;;17.50
67758;BMP180;54562;47.620;18.786;2023-03-23T16:53:17;98186.40;;;17.40
67758;BMP180;54562;47.620;18.786;2023-03-23T16:56:41;98185.20;;;17.20
67758;BMP180;54562;47.620;18.786;2023-03-23T16:59:52;98192.80;;;17.10
67758;BMP180;54562;47.620;18.786;2023-03-23T17:03:04;98199.80;;;17.00
67758;BMP180;54562;47.620;18.786;2023-03-23T17:06:13;98200.60;;;16.90
67758;BMP180;54562;47.620;18.786;2023-03-23T17:09:29;98204.80;;;16.80
67758;BMP180;54562;47.620;18.786;2023-03-23T17:12:37;98203.20;;;16.70
67758;BMP180;54562;47.620;18.786;2023-03-23T17:15:50;98204.40;;;16.52
67758;BMP180;54562;47.620;18.786;2023-03-23T17:18:59;98201.00;;;16.40
67758;BMP180;54562;47.620;18.786;2023-03-23T17:22:07;98208.20;;;16.30
67758;BMP180;54562;47.620;18.786;2023-03-23T17:25:15;98208.20;;;16.14
67758;BMP180;54562;47.620;18.786;2023-03-23T17:28:31;98216.60;;;16.10
67758;BMP180;54562;47.620;18.786;2023-03-23T17:31:39;98221.00;;;16.00
67758;BMP180;54562;47.620;18.786;2023-03-23T17:34:58;98224.40;;;15.90
67758;BMP180;54562;47.620;18.786;2023-03-23T17:38:07;98222.60;;;15.80
67758;BMP180;54562;47.620;18.786;2023-03-23T17:41:23;98224.60;;;15.80
67758;BMP180;54562;47.620;18.786;2023-03-23T17:44:31;98229.20;;;15.74
67758;BMP180;54562;47.620;18.786;2023-03-23T17:47:49;98224.20;;;15.70
67758;BMP180;54562;47.620;18.786;2023-03-23T17:50:58;98224.40;;;15.56
67758;BMP180;54562;47.620;18.786;2023-03-23T17:54:26;98225.20;;;15.40
67758;BMP180;54562;47.620;18.786;2023-03-23T17:57:35;98227.20;;;15.36
67758;BMP180;54562;47.620;18.786;2023-03-23T18:00:51;98238.40;;;15.30
67758;BMP180;54562;47.620;18.786;2023-03-23T18:03:59;98244.60;;;15.20
67758;BMP180;54562;47.620;18.786;2023-03-23T18:07:09;98244.20;;;15.10
67758;BMP180;54562;47.620;18.786;2023-03-23T18:10:18;98249.00;;;15.00
67758;BMP180;54562;47.620;18.786;2023-03-23T18:13:28;98249.40;;;15.00
67758;BMP180;54562;47.620;18.786;2023-03-23T18:16:37;98251.60;;;14.90
67758;BMP180;54562;47.620;18.786;2023-03-23T18:19:47;98246.80;;;14.80
67758;BMP180;54562;47.620;18.786;2023-03-23T18:22:55;98254.60;;;14.78
67758;BMP180;54562;47.620;18.786;2023-03-23T18:26:14;98256.00;;;14.70
67758;BMP180;54562;47.620;18.786;2023-03-23T18:29:22;98257.00;;;14.60
67758;BMP180;54562;47.620;18.786;2023-03-23T18:32:40;98257.60;;;14.60